createdAt,value
2019-03-06T17:26:10.924Z,0
2019-03-06T17:26:18.407Z,7.8
2019-03-06T17:26:25.930Z,5.8
2019-03-06T17:26:33.451Z,5.6
2019-03-06T17:26:40.996Z,5.2
2019-03-06T17:26:48.536Z,4
2019-03-06T17:26:56.056Z,4.9
2019-03-06T17:27:03.835Z,5.5
2019-03-06T17:27:11.453Z,4.5
2019-03-06T17:27:19.068Z,5.1
2019-03-06T17:27:26.567Z,4.1
2019-03-06T17:27:34.100Z,3.5
2019-03-06T17:27:41.640Z,3.4
2019-03-06T17:27:49.127Z,3.5
2019-03-06T17:27:56.663Z,3.8
2019-03-06T17:28:04.165Z,5.9
2019-03-06T17:28:11.761Z,5.8
2019-03-06T17:28:19.697Z,6.2
2019-03-06T17:28:27.196Z,7.1
2019-03-06T17:28:34.702Z,4.9
2019-03-06T17:28:42.335Z,5
2019-03-06T17:28:49.986Z,5.4
2019-03-06T17:28:57.473Z,4.6
2019-03-06T17:29:04.963Z,7.3
2019-03-06T17:29:12.598Z,8.6
2019-03-06T17:29:20.111Z,9
2019-03-06T17:29:27.645Z,11
2019-03-06T17:29:35.115Z,10.2
2019-03-06T17:29:42.649Z,10.2
2019-03-06T17:29:50.180Z,8.8
2019-03-06T17:29:57.705Z,6.4
2019-03-06T17:30:05.213Z,5.6
2019-03-06T17:30:12.720Z,6.8
2019-03-06T17:30:20.291Z,9
2019-03-06T17:30:27.798Z,9.8
2019-03-06T17:30:35.278Z,10.2
2019-03-06T17:30:42.810Z,9.1
2019-03-06T17:30:51.331Z,6.4
2019-03-06T17:30:58.816Z,5.9
2019-03-06T17:31:06.368Z,5.7
2019-03-06T17:31:13.861Z,5.8
2019-03-06T17:31:21.389Z,6.5
2019-03-06T17:31:28.973Z,6.1
2019-03-06T17:31:36.539Z,5.6
2019-03-06T17:31:44.023Z,4.6
2019-03-06T17:31:51.611Z,4.6
2019-03-06T17:31:59.106Z,4.9
2019-03-06T17:32:06.587Z,5.3
2019-03-06T17:32:14.119Z,5.8
2019-03-06T17:32:21.660Z,5.5
2019-03-06T17:32:29.272Z,5
2019-03-06T17:32:36.823Z,5.6
2019-03-06T17:32:44.417Z,6.3
2019-03-06T17:32:52.105Z,6.2
2019-03-06T17:32:59.604Z,6
2019-03-06T17:33:07.076Z,5.9
2019-03-06T17:33:14.565Z,5.8
2019-03-06T17:33:22.068Z,6.2
2019-03-06T17:33:29.554Z,8.2
2019-03-06T17:33:37.073Z,6.2
2019-03-06T17:33:44.765Z,6
2019-03-06T17:33:52.259Z,6.5
2019-03-06T17:33:59.758Z,4.8
2019-03-06T17:34:07.384Z,5
2019-03-06T17:34:15.056Z,4.7
2019-03-06T17:34:22.599Z,3.8
2019-03-06T17:34:30.101Z,6
2019-03-06T17:34:37.786Z,7
2019-03-06T17:34:45.383Z,9.9
2019-03-06T17:34:52.877Z,10.6
2019-03-06T17:35:00.450Z,8.7
2019-03-06T17:35:07.990Z,9
2019-03-06T17:35:15.467Z,6.9
2019-03-06T17:35:23.000Z,7.8
2019-03-06T17:35:30.509Z,9.1
2019-03-06T17:35:38.148Z,7.9
2019-03-06T17:35:45.635Z,6.3
2019-03-06T17:35:53.128Z,6.3
2019-03-06T17:36:00.677Z,4.6
2019-03-06T17:36:08.271Z,6.3
2019-03-06T17:36:15.748Z,6.7
2019-03-06T17:36:23.257Z,5.5
2019-03-06T17:36:30.809Z,6.9
2019-03-06T17:36:38.275Z,5.1
2019-03-06T17:36:45.770Z,5.2
2019-03-06T17:36:53.293Z,5.9
2019-03-06T17:37:01.382Z,4.6
2019-03-06T17:37:08.390Z,5.4
2019-03-06T17:37:15.897Z,5.3
2019-03-06T17:37:23.421Z,6
2019-03-06T17:37:30.903Z,5.8
2019-03-06T17:37:38.559Z,4.9
2019-03-06T17:37:46.233Z,5.5
2019-03-06T17:37:53.859Z,5.7
2019-03-06T17:38:20.680Z,0
2019-03-06T17:38:32.461Z,5.4
2019-03-06T17:38:44.585Z,5
2019-03-06T17:38:58.124Z,6
2019-03-06T17:39:08.096Z,5.5
2019-03-06T17:39:19.785Z,10
2019-03-06T17:39:31.592Z,10.4
2019-03-06T17:39:43.300Z,7.3
2019-03-06T17:39:54.983Z,5
2019-03-06T17:40:18.383Z,0
2019-03-06T17:40:46.520Z,0
2019-03-06T17:40:58.179Z,3.2
2019-03-06T17:41:09.825Z,3.3
2019-03-06T17:41:21.507Z,5
2019-03-06T17:41:33.318Z,6.5
2019-03-06T17:41:44.999Z,6.4
2019-03-06T17:41:57.661Z,5.8
2019-03-06T17:42:09.419Z,5.9
2019-03-06T17:42:21.321Z,6.1
2019-03-06T17:42:33.051Z,5.1
2019-03-06T17:42:44.739Z,5.5
2019-03-06T17:42:56.400Z,4.2
2019-03-06T17:43:08.148Z,4.2
2019-03-06T17:43:19.773Z,3.6
2019-03-06T17:43:31.626Z,4.8
2019-03-06T17:43:43.404Z,5.2
2019-03-06T17:43:55.119Z,5.8
2019-03-06T17:44:07.075Z,5.4
2019-03-06T17:44:18.743Z,6.9
2019-03-06T17:44:30.437Z,6.1
2019-03-06T17:44:42.567Z,6.7
2019-03-06T17:44:54.412Z,5.7
2019-03-06T17:45:06.108Z,7
2019-03-06T17:45:17.800Z,6.2
2019-03-06T17:45:30.631Z,6.4
2019-03-06T17:45:42.811Z,6.4
2019-03-06T17:45:54.748Z,5.7
2019-03-06T17:46:06.443Z,6.5
2019-03-06T17:46:18.156Z,6.5
2019-03-06T17:46:29.947Z,5.1
2019-03-06T17:46:41.660Z,3.9
2019-03-06T17:46:53.387Z,4.1
2019-03-06T17:47:04.968Z,5.2
2019-03-06T17:47:16.696Z,6.3
2019-03-06T17:47:28.745Z,6.1
2019-03-06T17:47:40.487Z,6.6
2019-03-06T17:47:52.364Z,5.6
2019-03-06T17:48:04.104Z,4.9
2019-03-06T17:48:15.813Z,5
2019-03-06T17:48:27.859Z,4.7
2019-03-06T17:48:39.579Z,4.5
2019-03-06T17:48:51.451Z,4
2019-03-06T17:49:03.141Z,3.7
2019-03-06T17:49:14.860Z,5
2019-03-06T17:49:26.555Z,5.7
2019-03-06T17:49:39.250Z,6.5
2019-03-06T17:49:51.046Z,5.5
2019-03-06T17:50:02.902Z,5.4
2019-03-06T17:50:14.747Z,3.8
2019-03-06T17:50:26.757Z,3.5
2019-03-06T17:50:38.614Z,4
2019-03-06T17:50:50.404Z,5.5
2019-03-06T17:51:02.127Z,5.3
2019-03-06T17:51:13.825Z,4.5
2019-03-06T17:51:25.464Z,4.6
2019-03-06T17:51:37.169Z,4.2
2019-03-06T17:51:48.895Z,4.9
2019-03-06T17:52:00.598Z,5.4
2019-03-06T17:52:12.263Z,5.4
2019-03-06T17:52:23.964Z,5.7
2019-03-06T17:52:35.627Z,5.3
2019-03-06T17:52:47.262Z,4.6
2019-03-06T17:52:58.938Z,3.7
2019-03-06T17:53:10.639Z,3.6
2019-03-06T17:53:22.314Z,4.7
2019-03-06T17:53:34.004Z,4.5
2019-03-06T17:53:45.691Z,4.9
2019-03-06T17:53:57.371Z,5.2
2019-03-06T17:54:09.115Z,4.5
2019-03-06T17:54:20.767Z,3
2019-03-06T17:54:32.488Z,4.4
2019-03-06T17:54:44.185Z,5
2019-03-06T17:54:55.890Z,5.1
2019-03-06T17:55:07.614Z,4.9
2019-03-06T17:55:19.280Z,6.1
2019-03-06T17:55:30.949Z,5.9
2019-03-06T17:55:42.612Z,6
2019-03-06T17:55:54.279Z,5.6
2019-03-06T17:56:05.997Z,6.5
2019-03-06T17:56:17.652Z,5.1
2019-03-06T17:56:29.302Z,5
2019-03-06T17:56:40.979Z,5.3
2019-03-06T17:56:52.630Z,6.3
2019-03-06T17:57:04.344Z,7.3
2019-03-06T17:57:15.979Z,6.7
2019-03-06T17:57:27.646Z,4.8
2019-03-06T17:57:40.487Z,5.3
2019-03-06T17:57:52.136Z,5.3
2019-03-06T17:58:03.824Z,5
2019-03-06T17:58:16.520Z,4
2019-03-06T17:58:28.174Z,4.1
2019-03-06T17:58:39.852Z,4.7
2019-03-06T17:58:51.822Z,5.2
2019-03-06T17:59:03.464Z,3.6
2019-03-06T17:59:15.478Z,6
2019-03-06T17:59:27.225Z,6.2
2019-03-06T17:59:39.242Z,6.2
2019-03-06T17:59:50.893Z,5
2019-03-06T18:00:02.560Z,5.2
2019-03-06T18:00:17.025Z,6.5
2019-03-06T18:00:26.878Z,6.1
2019-03-06T18:00:38.957Z,5.8
2019-03-06T18:00:50.663Z,4.7
2019-03-06T18:01:02.358Z,4.6
2019-03-06T18:01:14.973Z,5
2019-03-06T18:01:25.968Z,6.2
2019-03-06T18:01:37.651Z,6.4
2019-03-06T18:01:49.390Z,6.1
2019-03-06T18:02:01.240Z,6.2
2019-03-06T18:02:12.833Z,7.8
2019-03-06T18:02:26.427Z,7.6
2019-03-06T18:02:36.232Z,5.9
2019-03-06T18:02:47.948Z,5.5
2019-03-06T18:02:59.641Z,8.3
2019-03-06T18:03:11.310Z,8.6
2019-03-06T18:03:23.176Z,8.4
2019-03-06T18:03:34.872Z,6.2
2019-03-06T18:03:48.891Z,5.9
2019-03-06T18:03:58.576Z,6.1
2019-03-06T18:04:10.214Z,5.3
2019-03-06T18:04:21.891Z,5.1
2019-03-06T18:04:33.757Z,5.1
2019-03-06T18:04:45.924Z,6.1
2019-03-06T18:04:57.731Z,7.4
2019-03-06T18:05:09.870Z,8.8
2019-03-06T18:05:21.672Z,8.4
2019-03-06T18:05:33.665Z,6.9
2019-03-06T18:05:45.345Z,6.1
2019-03-06T18:05:57.050Z,4.9
2019-03-06T18:06:08.756Z,6.7
2019-03-06T18:06:20.431Z,7.1
2019-03-06T18:06:32.232Z,5.6
2019-03-06T18:06:43.916Z,6.3
2019-03-06T18:06:55.577Z,8.1
2019-03-06T18:07:07.318Z,7.2
2019-03-06T18:07:19.204Z,6.4
2019-03-06T18:07:31.005Z,6
2019-03-06T18:07:42.686Z,7
2019-03-06T18:07:54.442Z,7.9
2019-03-06T18:08:06.113Z,8.8
2019-03-06T18:08:17.966Z,6.8
2019-03-06T18:08:29.743Z,7.3
2019-03-06T18:08:41.486Z,6.4
2019-03-06T18:08:53.141Z,7
2019-03-06T18:09:04.887Z,5.7
2019-03-06T18:09:16.529Z,9.2
2019-03-06T18:09:28.223Z,9.8
2019-03-06T18:09:39.940Z,9.8
2019-03-06T18:09:51.616Z,8.8
2019-03-06T18:10:03.298Z,9
2019-03-06T18:10:14.959Z,7.4
2019-03-06T18:10:27.014Z,6.4
2019-03-06T18:10:39.362Z,6.8
2019-03-06T18:10:51.103Z,6.6
2019-03-06T18:11:02.786Z,6.8
2019-03-06T18:11:14.599Z,7.8
2019-03-06T18:11:26.457Z,8.1
2019-03-06T18:11:38.398Z,7.9
2019-03-06T18:11:50.043Z,8.1
2019-03-06T18:12:02.060Z,8
2019-03-06T18:12:13.776Z,8.1
2019-03-06T18:12:25.792Z,7
2019-03-06T18:12:37.589Z,8.4
2019-03-06T18:12:49.287Z,8.7
2019-03-06T18:13:00.954Z,7.1
2019-03-06T18:13:12.708Z,8.1
2019-03-06T18:13:24.634Z,7.6
2019-03-06T18:13:36.372Z,9.2
2019-03-06T18:13:48.151Z,8
2019-03-06T18:13:59.835Z,7.5
2019-03-06T18:14:11.514Z,7
2019-03-06T18:14:23.218Z,8.2
2019-03-06T18:14:34.900Z,8.5
2019-03-06T18:14:46.592Z,8.2
2019-03-06T18:14:58.659Z,5.9
2019-03-06T18:15:10.326Z,8.1
2019-03-06T18:15:22.085Z,10
2019-03-06T18:15:33.734Z,8.8
2019-03-06T18:15:45.440Z,6.7
2019-03-06T18:15:57.196Z,7.6
2019-03-06T18:16:08.892Z,8.7
2019-03-06T18:16:20.592Z,7.7
2019-03-06T18:16:32.284Z,6.6
2019-03-06T18:16:43.992Z,5.9
2019-03-06T18:16:55.840Z,6.7
2019-03-06T18:17:07.569Z,6.5
2019-03-06T18:17:19.281Z,6.5
2019-03-06T18:17:31.030Z,4.3
2019-03-06T18:17:42.794Z,4.6
2019-03-06T18:17:54.477Z,4.1
2019-03-06T18:18:06.139Z,5.6
2019-03-06T18:18:17.802Z,5.9
2019-03-06T18:18:29.448Z,5.7
2019-03-06T18:18:41.136Z,5.1
2019-03-06T18:18:52.798Z,5.2
2019-03-06T18:19:05.527Z,6.4
2019-03-06T18:19:17.211Z,8.2
2019-03-06T18:19:28.892Z,9.4
2019-03-06T18:19:40.599Z,7.2
2019-03-06T18:19:52.335Z,7.5
2019-03-06T18:20:04.044Z,7.2
2019-03-06T18:20:15.819Z,7.9
2019-03-06T18:20:27.539Z,7.8
2019-03-06T18:20:40.022Z,5.4
2019-03-06T18:20:51.938Z,6.4
2019-03-06T18:21:03.654Z,7
2019-03-06T18:21:15.316Z,8.5
2019-03-06T18:21:27.065Z,8.4
2019-03-06T18:21:38.993Z,8.8
2019-03-06T18:21:50.710Z,8.2
2019-03-06T18:22:02.442Z,7.8
2019-03-06T18:22:14.126Z,8.5
2019-03-06T18:22:25.864Z,7.3
2019-03-06T18:22:37.745Z,8.4
